Terminal Aerodrome Forecast
Issued by NWS

Home | Current Version | Previous Version | Text Only | Print | Product List | Glossary Off
Versions: 1 2 3 4 5 6 7 8 9 10 11 12 13 14 15

554
FTUS43 KMPX 250659 AAB
TAFRWF
TAF AMD
KRWF 250659Z 2507/2606 15009KT P6SM -SHRA VCTS SCT060CB BKN090
      TEMPO 2508/2510 6SM TSRA SCT030 OVC060CB
     FM251000 16014G23KT P6SM SCT040 SCT200
     FM252300 18011KT P6SM SCT050 BKN250
     FM260100 24008KT P6SM SHRA VCTS BKN040CB=

USA.gov is the U.S. government's official web portal to all federal, state and local government web resources and services.